Time;durP1;ratioP1;P1;durP2;ratioP2;P2;SDS_P1;SDS_P2;PMS_P1;PMS_P2;Temp;Humidity;BMP_temperature;BMP_pressure;BME280_temperature;BME280_humidity;BME280_pressure;Samples;Min_cycle;Max_cycle;Signal;HPM_P1;HPM_P2
2024/01/31 00:02:22;;;;;;;10.93;5.00;;;;;;;7.59;100.00;148066.97;4970548;28;20244;-66
2024/01/31 00:04:50;;;;;;;8.00;5.17;;;;;;;7.57;100.00;148061.97;4973622;28;20235;-66
2024/01/31 00:07:17;;;;;;;6.73;4.63;;;;;;;7.58;100.00;148065.75;4990160;28;20234;-66
2024/01/31 00:09:43;;;;;;;7.80;5.20;;;;;;;7.56;100.00;148060.78;4972018;28;20233;-66
2024/01/31 00:12:10;;;;;;;9.27;5.30;;;;;;;7.58;100.00;148065.75;4991537;28;20234;-67
2024/01/31 00:14:37;;;;;;;7.80;5.10;;;;;;;7.57;100.00;148061.97;4971626;28;20701;-67
2024/01/31 00:17:04;;;;;;;7.53;5.13;;;;;;;7.60;100.00;148070.72;4974274;28;20230;-67
2024/01/31 00:19:30;;;;;;;6.27;4.80;;;;;;;7.65;100.00;148081.88;4974871;28;20238;-67
2024/01/31 00:21:58;;;;;;;7.93;4.50;;;;;;;7.63;100.00;148078.16;4975462;28;20234;-67
2024/01/31 00:24:25;;;;;;;8.57;4.33;;;;;;;7.61;100.00;148073.19;4969124;28;20229;-67
2024/01/31 00:26:52;;;;;;;8.13;4.57;;;;;;;7.58;100.00;148064.47;4957963;28;20258;-67
2024/01/31 00:29:18;;;;;;;7.27;4.93;;;;;;;7.58;100.00;148064.47;4961204;28;20231;-67
2024/01/31 00:31:45;;;;;;;9.37;5.27;;;;;;;7.56;100.00;148060.78;4955262;28;20238;-67
2024/01/31 00:34:12;;;;;;;8.53;5.33;;;;;;;7.58;100.00;148064.47;4972748;28;20232;-67
2024/01/31 00:36:38;;;;;;;7.77;5.70;;;;;;;7.58;100.00;148064.47;4973839;28;20241;-67
2024/01/31 00:39:06;;;;;;;8.57;5.03;;;;;;;7.58;100.00;148065.75;4972380;28;20238;-67
2024/01/31 00:41:33;;;;;;;8.27;4.73;;;;;;;7.56;100.00;148060.78;4973673;28;20243;-67
2024/01/31 00:43:59;;;;;;;7.80;5.37;;;;;;;7.57;100.00;148063.25;4971518;28;20289;-67
2024/01/31 00:46:26;;;;;;;8.37;5.20;;;;;;;7.59;100.00;148068.22;4972278;28;20225;-67
2024/01/31 00:48:53;;;;;;;7.77;4.33;;;;;;;7.62;100.00;148074.41;4976899;28;20234;-67
2024/01/31 00:51:20;;;;;;;7.40;4.53;;;;;;;7.62;100.00;148074.41;4963831;28;20241;-67
2024/01/31 00:53:46;;;;;;;7.63;4.80;;;;;;;7.59;100.00;148066.97;4969225;28;20230;-67
2024/01/31 00:56:14;;;;;;;5.83;4.17;;;;;;;7.59;100.00;148068.22;4976952;28;20226;-67
2024/01/31 00:58:41;;;;;;;8.37;5.17;;;;;;;7.61;100.00;148071.94;4971615;28;20236;-67
2024/01/31 01:01:07;;;;;;;8.93;5.13;;;;;;;7.61;100.00;148071.94;4969167;28;20234;-67
2024/01/31 01:03:34;;;;;;;8.67;5.57;;;;;;;7.60;100.00;148070.72;4972108;28;20329;-67
2024/01/31 01:06:00;;;;;;;9.57;4.90;;;;;;;7.60;100.00;148069.44;4973061;28;20244;-67
2024/01/31 01:08:30;;;;;;;7.70;4.60;;;;;;;7.58;100.00;148064.47;4971307;28;20290;-67
2024/01/31 01:10:56;;;;;;;8.33;4.73;;;;;;;7.64;100.00;148080.66;4974879;28;20238;-67
2024/01/31 01:13:24;;;;;;;6.67;4.57;;;;;;;7.61;100.00;148071.94;4969073;28;20237;-67
2024/01/31 01:15:51;;;;;;;8.60;4.33;;;;;;;7.64;100.00;148079.38;4973929;28;20226;-67
2024/01/31 01:18:18;;;;;;;9.30;4.70;;;;;;;7.64;100.00;148079.38;4972026;28;20227;-66
2024/01/31 01:20:45;;;;;;;9.60;4.77;;;;;;;7.62;100.00;148075.69;4973231;28;20256;-66
2024/01/31 01:23:14;;;;;;;9.27;4.97;;;;;;;7.62;100.00;148074.41;4971553;28;20230;-66
2024/01/31 01:25:41;;;;;;;8.70;4.70;;;;;;;7.58;100.00;148064.47;4976025;28;20289;-66
2024/01/31 01:28:08;;;;;;;6.77;4.87;;;;;;;7.58;100.00;148064.47;4974287;28;20763;-66
2024/01/31 01:30:36;;;;;;;8.60;4.70;;;;;;;7.60;100.00;148069.44;4971533;28;20241;-67
2024/01/31 01:33:02;;;;;;;7.50;4.70;;;;;;;7.62;100.00;148074.41;4977061;28;20701;-67
2024/01/31 01:35:29;;;;;;;8.20;4.87;;;;;;;7.60;100.00;148069.44;4976167;28;20218;-67
2024/01/31 01:37:56;;;;;;;8.33;4.53;;;;;;;7.58;100.00;148064.47;4975027;28;20308;-67
2024/01/31 01:40:22;;;;;;;7.60;4.53;;;;;;;7.57;100.00;148063.25;4981286;28;20314;-66
2024/01/31 01:42:49;;;;;;;9.57;4.40;;;;;;;7.56;100.00;148060.78;4979270;28;20581;-67
2024/01/31 01:45:16;;;;;;;10.43;4.67;;;;;;;7.54;100.00;148057.00;4979117;28;20266;-67
2024/01/31 01:47:50;;;;;;;9.67;4.47;;;;;;;7.53;100.00;148053.31;4975400;28;20609;-67
2024/01/31 01:50:17;;;;;;;8.73;4.90;;;;;;;7.52;100.00;148052.03;4979343;28;20230;-67
2024/01/31 01:52:45;;;;;;;7.80;4.80;;;;;;;7.55;100.00;148058.28;4995122;28;20221;-67
2024/01/31 01:55:11;;;;;;;10.67;4.93;;;;;;;7.55;100.00;148058.28;4980900;28;20219;-67
2024/01/31 01:57:39;;;;;;;8.20;4.40;;;;;;;7.55;100.00;148058.28;4978561;28;21316;-67
2024/01/31 02:00:09;;;;;;;8.00;4.80;;;;;;;7.56;100.00;148060.78;4981289;28;20307;-67
2024/01/31 02:02:37;;;;;;;9.07;4.63;;;;;;;7.58;100.00;148064.47;4974341;28;20757;-67
2024/01/31 02:05:06;;;;;;;9.17;4.83;;;;;;;7.58;100.00;148064.47;4981269;28;20219;-67
2024/01/31 02:07:34;;;;;;;8.40;4.67;;;;;;;7.53;100.00;148054.53;4977139;28;20584;-67
2024/01/31 02:10:01;;;;;;;6.17;4.60;;;;;;;7.54;100.00;148055.78;4977023;28;20706;-67
2024/01/31 02:12:28;;;;;;;6.50;4.20;;;;;;;7.58;100.00;148065.75;4974304;28;20246;-67
2024/01/31 02:14:56;;;;;;;9.80;4.80;;;;;;;7.49;100.00;148044.59;4979716;28;20258;-67
2024/01/31 02:17:22;;;;;;;10.13;4.83;;;;;;;7.54;100.00;148055.78;4975889;28;20303;-67
2024/01/31 02:19:49;;;;;;;7.23;4.37;;;;;;;7.50;100.00;148047.06;4975798;28;20234;-67
2024/01/31 02:22:18;;;;;;;6.53;4.30;;;;;;;7.48;100.00;148040.88;4979143;28;20222;-67
2024/01/31 02:24:45;;;;;;;8.80;4.80;;;;;;;7.48;100.00;148042.09;4976599;28;20325;-67
2024/01/31 02:27:12;;;;;;;8.33;4.70;;;;;;;7.47;100.00;148038.41;4979589;28;20714;-67
2024/01/31 02:29:39;;;;;;;7.07;4.43;;;;;;;7.51;100.00;148049.56;4972333;28;20237;-67
2024/01/31 02:32:06;;;;;;;6.20;4.50;;;;;;;7.51;100.00;148049.56;4980453;28;20230;-67
2024/01/31 02:34:33;;;;;;;8.83;4.83;;;;;;;7.48;100.00;148042.09;4974853;28;20231;-67
2024/01/31 02:37:00;;;;;;;10.20;4.53;;;;;;;7.47;100.00;148038.41;4974683;28;20242;-67
2024/01/31 02:39:28;;;;;;;7.53;4.83;;;;;;;7.49;100.00;148043.38;4974981;28;20230;-67
2024/01/31 02:41:54;;;;;;;10.13;4.87;;;;;;;7.49;100.00;148044.59;4976567;28;20227;-67
2024/01/31 02:44:21;;;;;;;10.57;5.03;;;;;;;7.50;100.00;148045.84;4976546;28;20238;-67
2024/01/31 02:46:48;;;;;;;7.93;4.37;;;;;;;7.50;100.00;148045.84;4974154;28;20227;-67
2024/01/31 02:49:14;;;;;;;7.83;4.50;;;;;;;7.49;100.00;148044.59;4976726;28;20227;-67
2024/01/31 02:51:41;;;;;;;7.63;4.83;;;;;;;7.48;100.00;148042.09;4973576;28;20714;-67
2024/01/31 02:54:07;;;;;;;9.77;4.77;;;;;;;7.47;100.00;148039.63;4979176;28;20232;-67
2024/01/31 02:56:34;;;;;;;6.97;4.90;;;;;;;7.47;100.00;148038.41;4975489;28;20645;-67
2024/01/31 02:59:01;;;;;;;9.13;4.93;;;;;;;7.46;100.00;148035.91;4976767;28;20230;-67
2024/01/31 03:01:28;;;;;;;15.53;5.33;;;;;;;7.41;100.00;148023.47;4963438;28;20233;-67
2024/01/31 03:03:54;;;;;;;8.83;5.13;;;;;;;7.45;100.00;148033.41;4975859;28;20227;-67
2024/01/31 03:06:21;;;;;;;9.93;4.93;;;;;;;7.44;100.00;148030.94;4965282;28;20229;-67
2024/01/31 03:08:47;;;;;;;7.73;5.40;;;;;;;7.50;100.00;148047.06;4976171;28;20233;-67
2024/01/31 03:11:14;;;;;;;9.00;5.13;;;;;;;7.49;100.00;148043.38;4979991;28;20240;-67
2024/01/31 03:13:42;;;;;;;10.10;5.07;;;;;;;7.51;100.00;148048.34;4974505;28;20219;-67
2024/01/31 03:16:08;;;;;;;10.23;4.97;;;;;;;7.49;100.00;148043.38;4977529;28;20229;-67
2024/01/31 03:18:35;;;;;;;7.30;5.07;;;;;;;7.49;100.00;148044.59;4973621;28;20551;-67
2024/01/31 03:21:02;;;;;;;6.93;4.93;;;;;;;7.49;100.00;148044.59;4975733;28;20236;-67
2024/01/31 03:23:31;;;;;;;7.97;5.13;;;;;;;7.50;100.00;148047.06;4975024;28;20233;-67
2024/01/31 03:25:57;;;;;;;9.87;4.87;;;;;;;7.52;100.00;148050.81;4977152;28;20865;-67
2024/01/31 03:28:24;;;;;;;8.03;5.10;;;;;;;7.53;100.00;148053.31;4975350;28;20587;-67
2024/01/31 03:30:52;;;;;;;7.73;4.70;;;;;;;7.46;100.00;148037.13;4975749;28;20254;-67
2024/01/31 03:33:19;;;;;;;8.53;5.17;;;;;;;7.45;100.00;148034.63;4974296;28;20280;-67
2024/01/31 03:35:45;;;;;;;7.13;4.53;;;;;;;7.45;100.00;148033.41;4979508;28;20230;-67
2024/01/31 03:38:12;;;;;;;9.20;4.50;;;;;;;7.45;100.00;148034.63;4978217;28;20227;-67
2024/01/31 03:40:39;;;;;;;8.27;4.90;;;;;;;7.44;100.00;148032.16;4972452;28;20233;-67
2024/01/31 03:43:05;;;;;;;8.33;4.77;;;;;;;7.45;100.00;148033.41;4977144;28;20218;-67
2024/01/31 03:45:32;;;;;;;9.70;4.60;;;;;;;7.45;100.00;148033.41;4972876;28;20226;-67
2024/01/31 03:48:00;;;;;;;7.57;4.90;;;;;;;7.42;100.00;148027.19;4977475;28;20711;-67
2024/01/31 03:50:28;;;;;;;8.37;5.03;;;;;;;7.43;100.00;148029.66;4986870;28;20230;-67
2024/01/31 03:52:55;;;;;;;8.77;5.50;;;;;;;7.44;100.00;148032.16;4978355;28;20238;-67
2024/01/31 03:55:21;;;;;;;8.40;4.80;;;;;;;7.47;100.00;148039.63;4974300;28;20543;-67
2024/01/31 03:57:48;;;;;;;10.13;4.47;;;;;;;7.44;100.00;148032.16;4974606;28;20240;-67
2024/01/31 04:00:16;;;;;;;8.67;5.00;;;;;;;7.47;100.00;148038.41;4983004;28;20229;-67
2024/01/31 04:02:42;;;;;;;7.10;4.90;;;;;;;7.47;100.00;148039.63;4973020;28;20757;-67
2024/01/31 04:05:11;;;;;;;11.00;4.57;;;;;;;7.41;100.00;148023.47;4976234;28;20262;-67
2024/01/31 04:07:38;;;;;;;11.07;4.40;;;;;;;7.38;100.00;148018.50;4974004;28;20253;-67
2024/01/31 04:10:05;;;;;;;7.77;4.60;;;;;;;7.40;100.00;148022.25;4978459;28;20229;-67
2024/01/31 04:12:32;;;;;;;7.60;4.67;;;;;;;7.43;100.00;148029.66;4971714;28;20602;-67
2024/01/31 04:14:58;;;;;;;7.60;4.93;;;;;;;7.44;100.00;148032.16;4977172;28;20237;-67
2024/01/31 04:17:25;;;;;;;7.83;4.90;;;;;;;7.48;100.00;148040.88;4976047;28;20242;-67
2024/01/31 04:19:52;;;;;;;6.97;4.33;;;;;;;7.44;100.00;148030.94;4976084;28;20535;-67
2024/01/31 04:22:19;;;;;;;7.43;4.83;;;;;;;7.42;100.00;148025.97;4973230;28;20233;-67
2024/01/31 04:24:46;;;;;;;10.67;5.07;;;;;;;7.43;100.00;148029.66;4993193;28;20236;-67
2024/01/31 04:27:13;;;;;;;7.20;4.20;;;;;;;7.46;100.00;148037.13;4975873;28;20222;-67
2024/01/31 04:29:39;;;;;;;5.53;4.60;;;;;;;7.46;100.00;148037.13;4972071;28;20249;-67
2024/01/31 04:32:07;;;;;;;8.63;4.73;;;;;;;7.46;100.00;148035.91;5194670;23;20289;-67
2024/01/31 04:34:34;;;;;;;9.03;5.37;;;;;;;7.46;100.00;148037.13;4973339;28;20234;-67
2024/01/31 04:37:01;;;;;;;9.50;5.07;;;;;;;7.46;100.00;148035.91;4973911;28;20250;-67
2024/01/31 04:39:29;;;;;;;7.13;4.80;;;;;;;7.43;100.00;148029.66;4973600;28;20234;-67
2024/01/31 04:41:56;;;;;;;8.30;4.63;;;;;;;7.45;100.00;148034.63;4962421;28;20227;-67
2024/01/31 04:44:22;;;;;;;9.47;5.03;;;;;;;7.44;100.00;148030.94;4954647;28;20711;-67
2024/01/31 04:46:49;;;;;;;8.27;4.73;;;;;;;7.44;100.00;148032.16;4957422;28;20578;-67
2024/01/31 04:49:16;;;;;;;10.17;4.83;;;;;;;7.49;100.00;148043.38;4956442;28;20302;-67
2024/01/31 04:51:43;;;;;;;8.60;5.17;;;;;;;7.51;100.00;148048.34;4953267;28;20582;-67
2024/01/31 04:54:09;;;;;;;10.63;5.40;;;;;;;7.46;100.00;148037.13;4953114;28;20230;-68
2024/01/31 04:56:37;;;;;;;8.53;5.57;;;;;;;7.46;100.00;148037.13;4951206;28;20234;-67
2024/01/31 04:59:04;;;;;;;8.03;5.10;;;;;;;7.47;100.00;148038.41;4954203;28;20228;-67
2024/01/31 05:01:31;;;;;;;13.37;6.07;;;;;;;7.44;100.00;148030.94;4946102;28;20627;-67
2024/01/31 05:03:58;;;;;;;7.63;5.90;;;;;;;7.43;100.00;148029.66;4937661;28;20250;-67
2024/01/31 05:06:24;;;;;;;8.37;5.27;;;;;;;7.42;100.00;148027.19;4953163;28;20315;-67
2024/01/31 05:08:52;;;;;;;11.17;5.27;;;;;;;7.42;100.00;148027.19;4955054;28;20223;-67
2024/01/31 05:11:18;;;;;;;12.30;6.27;;;;;;;7.42;100.00;148025.97;4959414;28;20742;-67
2024/01/31 05:13:46;;;;;;;11.40;5.80;;;;;;;7.41;100.00;148024.75;4952092;28;20690;-67
2024/01/31 05:16:13;;;;;;;11.07;6.23;;;;;;;7.43;100.00;148028.44;4958202;28;20223;-67
2024/01/31 05:18:40;;;;;;;10.13;5.67;;;;;;;7.41;100.00;148024.75;4953641;28;20895;-67
2024/01/31 05:21:08;;;;;;;11.83;6.00;;;;;;;7.41;100.00;148024.75;4956117;28;20310;-67
2024/01/31 05:23:34;;;;;;;9.83;6.23;;;;;;;7.41;100.00;148024.75;4954022;28;20221;-67
2024/01/31 05:26:01;;;;;;;9.80;6.27;;;;;;;7.39;100.00;148019.78;4954165;28;20241;-67
2024/01/31 05:28:31;;;;;;;13.03;6.87;;;;;;;7.37;100.00;148016.03;4950765;28;20235;-67
2024/01/31 05:30:59;;;;;;;14.30;8.20;;;;;;;7.38;100.00;148018.50;4953260;28;20243;-67
2024/01/31 05:33:29;;;;;;;13.63;8.03;;;;;;;7.38;100.00;148018.50;4952354;28;20233;-67
2024/01/31 05:35:56;;;;;;;12.17;7.53;;;;;;;7.38;100.00;148018.50;4953521;28;20285;-67
2024/01/31 05:38:22;;;;;;;13.23;8.20;;;;;;;7.41;100.00;148024.75;4953509;28;20214;-67
2024/01/31 05:40:49;;;;;;;13.60;8.07;;;;;;;7.39;100.00;148021.00;4955808;28;20238;-67
2024/01/31 05:43:18;;;;;;;13.63;7.53;;;;;;;7.40;100.00;148022.25;4954908;28;20230;-67
2024/01/31 05:45:44;;;;;;;13.10;7.33;;;;;;;7.36;100.00;148013.53;4952110;28;20247;-67
2024/01/31 05:48:14;;;;;;;12.83;7.73;;;;;;;7.39;100.00;148019.78;4954821;28;20262;-67
2024/01/31 05:50:40;;;;;;;8.93;6.77;;;;;;;7.36;100.00;148012.31;4952813;28;20225;-67
2024/01/31 05:53:07;;;;;;;8.70;6.00;;;;;;;7.28;100.00;147992.44;4951972;28;20238;-67
2024/01/31 05:55:33;;;;;;;11.50;6.50;;;;;;;7.21;100.00;147977.53;4952286;28;20713;-67
2024/01/31 05:58:00;;;;;;;14.37;8.80;;;;;;;7.19;100.00;147971.28;4937284;28;20234;-67
2024/01/31 06:00:27;;;;;;;15.70;9.23;;;;;;;7.18;100.00;147970.06;4950387;28;20699;-67
2024/01/31 06:02:53;;;;;;;15.87;9.87;;;;;;;7.19;100.00;147971.28;4946330;28;20610;-67
2024/01/31 06:05:21;;;;;;;18.17;10.32;;;;;;;7.19;100.00;147971.28;4952172;28;20431;-67
2024/01/31 06:07:48;;;;;;;15.03;9.43;;;;;;;7.18;100.00;147968.78;4954809;28;20219;-67
2024/01/31 06:10:14;;;;;;;14.87;9.33;;;;;;;7.18;100.00;147970.06;4952544;28;20359;-67
2024/01/31 06:12:41;;;;;;;15.47;9.30;;;;;;;7.20;100.00;147973.78;4950311;28;20219;-67
2024/01/31 06:15:09;;;;;;;18.30;10.50;;;;;;;7.21;100.00;147976.25;4941843;28;20232;-67
2024/01/31 06:17:37;;;;;;;19.10;9.90;;;;;;;7.24;100.00;147983.72;4953928;28;20229;-67
2024/01/31 06:20:05;;;;;;;15.37;9.00;;;;;;;7.19;100.00;147971.28;4957021;28;20253;-67
2024/01/31 06:22:33;;;;;;;15.33;8.83;;;;;;;7.15;100.00;147961.34;4955386;28;20714;-67
2024/01/31 06:25:00;;;;;;;18.40;9.33;;;;;;;7.11;100.00;147952.66;4959114;28;20226;-67
2024/01/31 06:27:26;;;;;;;14.07;8.43;;;;;;;7.11;100.00;147952.66;4955377;28;20221;-67
2024/01/31 06:29:53;;;;;;;12.77;7.97;;;;;;;7.11;100.00;147951.41;4960079;28;20236;-68
2024/01/31 06:32:22;;;;;;;14.93;8.10;;;;;;;7.07;100.00;147943.94;4954753;28;20293;-66
2024/01/31 06:34:51;;;;;;;12.70;8.23;;;;;;;7.03;100.00;147932.78;4956891;28;20217;-66
2024/01/31 06:37:17;;;;;;;14.50;8.00;;;;;;;7.05;100.00;147937.75;4957587;28;20238;-65
2024/01/31 06:39:45;;;;;;;11.57;7.67;;;;;;;7.07;100.00;147943.94;4953161;28;20225;-68
2024/01/31 06:42:12;;;;;;;17.47;8.80;;;;;;;7.07;100.00;147943.94;4954914;28;20730;-67
2024/01/31 06:44:39;;;;;;;14.30;8.00;;;;;;;7.09;100.00;147947.69;4934928;28;25015;-67
2024/01/31 06:47:06;;;;;;;17.07;10.20;;;;;;;7.12;100.00;147953.88;4941670;28;20222;-67
2024/01/31 06:49:33;;;;;;;16.27;11.50;;;;;;;7.14;100.00;147960.13;4954901;28;20316;-67
2024/01/31 06:51:59;;;;;;;16.53;10.30;;;;;;;7.17;100.00;147967.56;4959545;28;20234;-68
2024/01/31 06:54:26;;;;;;;18.38;10.05;;;;;;;7.20;100.00;147975.03;4953895;28;20439;-67
2024/01/31 06:56:54;;;;;;;17.07;10.50;;;;;;;7.19;100.00;147972.53;4957593;28;20222;-67
2024/01/31 06:59:20;;;;;;;17.03;10.63;;;;;;;7.23;100.00;147982.50;4952775;28;20781;-68
2024/01/31 07:01:47;;;;;;;20.67;12.13;;;;;;;7.27;100.00;147989.94;4949424;28;20453;-67
2024/01/31 07:04:14;;;;;;;22.47;11.10;;;;;;;7.24;100.00;147984.97;4958604;28;20227;-68
2024/01/31 07:06:39;;;;;;;14.97;8.87;;;;;;;7.27;100.00;147989.94;4945753;28;20714;-68
2024/01/31 07:09:06;;;;;;;14.47;8.77;;;;;;;7.25;100.00;147986.19;4955955;28;20237;-69
2024/01/31 07:11:32;;;;;;;16.13;8.87;;;;;;;7.23;100.00;147982.50;4953121;28;20238;-69
2024/01/31 07:14:00;;;;;;;14.90;8.97;;;;;;;7.23;100.00;147982.50;4939591;28;20349;-69
2024/01/31 07:16:27;;;;;;;11.17;8.10;;;;;;;7.27;100.00;147991.16;4952286;28;20230;-69
2024/01/31 07:18:54;;;;;;;13.57;8.37;;;;;;;7.24;100.00;147984.97;4955801;28;20225;-69
2024/01/31 07:21:25;;;;;;;16.17;9.57;;;;;;;7.25;100.00;147986.19;4944435;28;20709;-69
2024/01/31 07:23:52;;;;;;;17.13;10.13;;;;;;;7.27;100.00;147991.16;4946158;28;20226;-70
2024/01/31 07:26:23;;;;;;;19.23;11.93;;;;;;;7.27;100.00;147991.16;4952207;28;20238;-69
2024/01/31 07:28:49;;;;;;;19.50;12.10;;;;;;;7.27;100.00;147991.16;4953520;28;20232;-69
2024/01/31 07:31:18;;;;;;;21.47;13.83;;;;;;;7.31;100.00;148001.09;4951311;28;20246;-69
2024/01/31 07:33:44;;;;;;;17.60;11.23;;;;;;;7.31;100.00;147999.88;4951439;28;20239;-69
2024/01/31 07:36:11;;;;;;;22.70;11.43;;;;;;;7.29;100.00;147994.91;4957724;28;20298;-69
2024/01/31 07:38:42;;;;;;;20.40;12.03;;;;;;;7.30;100.00;147998.63;4953602;28;20223;-69
2024/01/31 07:41:09;;;;;;;19.43;12.00;;;;;;;7.28;100.00;147993.66;4954708;28;20238;-69
2024/01/31 07:43:36;;;;;;;19.20;12.00;;;;;;;7.29;100.00;147996.13;4950880;28;20226;-69
2024/01/31 07:46:03;;;;;;;27.57;18.13;;;;;;;7.24;100.00;147983.72;4957480;28;20229;-68
2024/01/31 07:48:33;;;;;;;23.23;14.53;;;;;;;7.24;100.00;147983.72;4951877;28;20218;-69
2024/01/31 07:51:02;;;;;;;23.13;13.50;;;;;;;7.23;100.00;147981.22;4950779;28;20239;-69
2024/01/31 07:53:31;;;;;;;26.83;14.40;;;;;;;7.21;100.00;147977.53;4951938;28;20241;-69
2024/01/31 07:55:58;;;;;;;22.43;14.10;;;;;;;7.22;100.00;147978.75;4941638;28;20223;-68
2024/01/31 07:58:24;;;;;;;22.03;13.50;;;;;;;7.24;100.00;147984.97;4944089;28;20230;-68
2024/01/31 08:00:51;;;;;;;23.07;13.93;;;;;;;7.22;100.00;147978.75;4943752;28;20229;-68
2024/01/31 08:03:18;;;;;;;17.60;12.37;;;;;;;7.19;100.00;147971.28;4943333;28;20226;-68
2024/01/31 08:05:46;;;;;;;25.70;18.60;;;;;;;7.23;100.00;147981.22;4937055;28;20221;-69
2024/01/31 08:08:12;;;;;;;25.47;13.53;;;;;;;7.18;100.00;147968.78;4955283;28;20601;-68
2024/01/31 08:10:39;;;;;;;19.17;12.13;;;;;;;7.26;100.00;147988.69;4950056;28;20238;-68
2024/01/31 08:13:06;;;;;;;19.40;12.47;;;;;;;7.25;100.00;147986.19;4945599;28;20235;-68
2024/01/31 08:15:34;;;;;;;20.20;12.50;;;;;;;7.25;100.00;147986.19;4950947;28;20233;-68
2024/01/31 08:18:01;;;;;;;19.97;12.50;;;;;;;7.29;100.00;147994.91;4955072;28;20235;-68
2024/01/31 08:20:28;;;;;;;17.13;12.07;;;;;;;7.25;100.00;147986.19;4953454;28;20234;-68
2024/01/31 08:22:56;;;;;;;18.83;11.20;;;;;;;7.29;100.00;147996.13;4956755;28;20248;-68
2024/01/31 08:25:22;;;;;;;27.17;13.10;;;;;;;7.36;100.00;148012.31;4944521;28;20245;-68
2024/01/31 08:27:50;;;;;;;20.80;13.67;;;;;;;7.48;100.00;148042.09;4952832;28;20229;-70
2024/01/31 08:30:17;;;;;;;23.47;13.47;;;;;;;7.71;100.00;148096.78;4955182;28;20301;-70
2024/01/31 08:32:45;;;;;;;23.37;13.57;;;;;;;7.63;100.00;148076.91;4952901;28;20319;-71
2024/01/31 08:35:12;;;;;;;25.53;15.60;;;;;;;7.68;100.00;148090.59;4951559;28;20217;-70
2024/01/31 08:37:39;;;;;;;26.97;16.10;;;;;;;7.76;100.00;148109.22;4949202;28;20233;-70
2024/01/31 08:40:10;;;;;;;24.07;15.17;;;;;;;7.82;100.00;148122.94;4945081;28;20227;-70
2024/01/31 08:42:38;;;;;;;31.37;17.13;;;;;;;7.80;100.00;148119.16;4951307;28;20672;-69
2024/01/31 08:45:06;;;;;;;26.53;18.23;;;;;;;7.82;100.00;148124.16;4955465;28;20764;-69
2024/01/31 08:47:32;;;;;;;27.20;16.10;;;;;;;7.89;100.00;148140.34;4951753;28;20223;-69
2024/01/31 08:49:59;;;;;;;26.63;16.23;;;;;;;7.97;100.00;148160.19;4953970;28;20239;-70
2024/01/31 08:52:26;;;;;;;22.47;14.60;;;;;;;8.07;100.00;148183.81;4953019;28;20257;-70
2024/01/31 08:54:52;;;;;;;29.53;15.80;;;;;;;8.16;100.00;148203.72;4954204;28;20234;-70
2024/01/31 08:57:20;;;;;;;27.00;17.40;;;;;;;8.23;100.00;148222.34;4944369;28;20235;-70
2024/01/31 08:59:47;;;;;;;28.87;16.67;;;;;;;8.19;100.00;148212.41;4953167;28;20224;-70
2024/01/31 09:02:13;;;;;;;28.00;16.10;;;;;;;8.20;100.00;148213.66;4956805;28;20254;-70
2024/01/31 09:04:40;;;;;;;24.03;14.30;;;;;;;8.21;100.00;148216.16;4935930;28;20231;-69
2024/01/31 09:07:07;;;;;;;28.00;13.83;;;;;;;8.20;99.75;148214.91;4951651;28;20235;-70
2024/01/31 09:09:37;;;;;;;23.73;14.97;;;;;;;8.16;99.06;148204.94;4935293;28;20726;-70
2024/01/31 09:12:05;;;;;;;24.57;14.37;;;;;;;8.21;100.00;148216.16;4955451;28;20238;-70
2024/01/31 09:14:33;;;;;;;22.50;14.03;;;;;;;8.24;99.93;148224.84;4948576;28;20228;-70
2024/01/31 09:17:00;;;;;;;25.03;15.40;;;;;;;8.35;99.94;148249.72;4953846;28;20219;-70
2024/01/31 09:19:26;;;;;;;26.00;15.90;;;;;;;8.49;98.67;148284.59;4952854;28;20227;-70
2024/01/31 09:21:53;;;;;;;26.17;15.87;;;;;;;8.54;98.54;148297.03;4954387;28;20235;-70
2024/01/31 09:24:20;;;;;;;27.83;15.23;;;;;;;8.62;96.57;148314.44;4951658;28;20228;-70
2024/01/31 09:26:47;;;;;;;27.13;16.37;;;;;;;8.64;97.24;148320.63;4946345;28;20730;-70
2024/01/31 09:29:13;;;;;;;31.30;17.47;;;;;;;8.78;94.91;148352.97;4954160;28;20231;-70
2024/01/31 09:31:41;;;;;;;24.03;15.40;;;;;;;8.57;95.98;148304.50;4952020;28;20569;-70
2024/01/31 09:34:08;;;;;;;24.27;15.57;;;;;;;8.73;97.09;148341.81;4950858;28;20233;-70
2024/01/31 09:36:35;;;;;;;26.90;15.90;;;;;;;8.87;96.10;148375.38;4953305;28;20227;-70
2024/01/31 09:39:03;;;;;;;22.40;14.60;;;;;;;8.92;93.64;148386.59;4952319;28;20693;-70
2024/01/31 09:41:30;;;;;;;25.63;15.00;;;;;;;8.93;94.00;148390.31;4947779;28;20859;-70
2024/01/31 09:43:57;;;;;;;25.43;16.63;;;;;;;8.76;94.75;148348.00;4956767;28;20236;-70
2024/01/31 09:46:23;;;;;;;27.80;16.80;;;;;;;8.51;96.10;148288.28;4951009;28;20228;-69
2024/01/31 09:48:52;;;;;;;24.47;15.83;;;;;;;8.73;94.96;148341.81;4957272;28;20289;-70
2024/01/31 09:51:20;;;;;;;23.60;15.63;;;;;;;8.82;94.91;148362.94;4953265;28;20233;-69
2024/01/31 09:53:50;;;;;;;29.20;16.63;;;;;;;8.82;95.40;148364.19;4944922;28;20232;-70
2024/01/31 09:56:17;;;;;;;27.63;15.30;;;;;;;8.62;95.85;148315.66;4955552;28;20226;-69
2024/01/31 09:58:43;;;;;;;24.20;15.97;;;;;;;8.55;97.91;148299.50;4942311;28;20245;-70
2024/01/31 10:01:12;;;;;;;35.67;22.07;;;;;;;8.39;97.46;148259.66;4959546;28;20231;-69
2024/01/31 10:03:39;;;;;;;32.67;19.27;;;;;;;8.54;97.34;148295.75;4955682;28;20223;-71
2024/01/31 10:06:07;;;;;;;31.17;17.10;;;;;;;8.65;99.02;148323.13;4954539;28;20225;-70
2024/01/31 10:08:34;;;;;;;38.00;20.90;;;;;;;8.61;100.00;148313.19;4955424;28;20286;-71
2024/01/31 10:11:00;;;;;;;32.80;19.03;;;;;;;8.75;100.00;148346.78;4958055;28;20332;-70
2024/01/31 10:13:31;;;;;;;32.33;17.70;;;;;;;8.86;100.00;148374.16;4952691;28;20704;-71
2024/01/31 10:15:58;;;;;;;27.70;15.80;;;;;;;9.05;100.00;148418.91;4960863;28;20223;-69
2024/01/31 10:18:27;;;;;;;36.20;18.87;;;;;;;9.15;99.07;148443.78;4954199;28;20663;-68
2024/01/31 10:20:54;;;;;;;26.00;17.00;;;;;;;9.26;97.71;148468.66;4958774;28;20228;-68
2024/01/31 10:23:23;;;;;;;27.47;17.43;;;;;;;9.44;95.54;148513.47;4952355;28;20225;-68
2024/01/31 10:25:50;;;;;;;28.83;17.70;;;;;;;9.38;94.42;148497.31;4962460;28;20223;-68
2024/01/31 10:28:20;;;;;;;26.40;15.13;;;;;;;9.50;93.71;148525.94;4958715;28;20243;-69
2024/01/31 10:30:47;;;;;;;25.97;16.13;;;;;;;9.60;93.70;148550.81;4956114;28;20857;-68
2024/01/31 10:33:16;;;;;;;23.00;14.63;;;;;;;9.66;90.18;148565.75;4955890;28;20325;-68
2024/01/31 10:35:45;;;;;;;28.33;16.33;;;;;;;9.50;93.06;148527.19;4927641;28;20235;-67
2024/01/31 10:38:14;;;;;;;23.60;15.70;;;;;;;9.72;97.00;148580.69;4956935;28;20233;-69
2024/01/31 10:40:43;;;;;;;21.70;14.53;;;;;;;9.64;94.07;148559.50;4951504;28;20254;-69
2024/01/31 10:43:10;;;;;;;23.57;14.63;;;;;;;9.75;93.96;148586.91;4957943;28;20996;-69
2024/01/31 10:45:37;;;;;;;23.17;14.80;;;;;;;9.78;91.78;148593.16;4956514;28;20228;-69
2024/01/31 10:48:04;;;;;;;23.47;14.53;;;;;;;9.95;90.38;148635.47;4956262;28;20254;-70
2024/01/31 10:50:31;;;;;;;28.13;14.40;;;;;;;9.98;97.91;148641.69;4954174;28;20233;-64
2024/01/31 10:52:59;;;;;;;28.47;16.33;;;;;;;9.90;94.18;148624.25;4956672;28;20241;-64
2024/01/31 10:55:28;;;;;;;31.25;17.08;;;;;;;9.95;95.07;148634.22;4952514;28;21001;-67
2024/01/31 10:57:57;;;;;;;28.50;16.90;;;;;;;9.73;92.47;148581.91;4958614;28;20229;-67
2024/01/31 11:00:28;;;;;;;26.70;15.97;;;;;;;9.63;92.86;148557.03;4938472;28;20595;-67
2024/01/31 11:02:56;;;;;;;27.50;16.60;;;;;;;9.49;93.74;148523.44;4956468;28;20228;-67
2024/01/31 11:05:23;;;;;;;27.13;16.83;;;;;;;9.60;93.09;148552.03;4953123;28;20303;-68
2024/01/31 11:07:50;;;;;;;29.50;15.70;;;;;;;9.67;93.40;148566.97;4956085;28;20553;-68
2024/01/31 11:10:18;;;;;;;28.47;17.27;;;;;;;9.68;95.41;148569.47;4954576;28;20701;-68
2024/01/31 11:12:55;;;;;;;29.27;16.60;;;;;;;9.67;96.22;148566.97;4953869;28;20240;-67
2024/01/31 11:15:29;;;;;;;26.93;17.87;;;;;;;9.69;94.89;148571.97;4915270;28;20227;-67
2024/01/31 11:18:05;;;;;;;28.33;17.87;;;;;;;9.54;95.45;148535.88;4957546;28;20239;-67
2024/01/31 11:20:33;;;;;;;26.73;16.73;;;;;;;9.62;93.69;148555.81;4951094;28;20232;-67